Time;durP1;ratioP1;P1;durP2;ratioP2;P2;SDS_P1;SDS_P2;PMS_P1;PMS_P2;Temp;Humidity;BMP_temperature;BMP_pressure;BME280_temperature;BME280_humidity;BME280_pressure;Samples;Min_cycle;Max_cycle;Signal;HPM_P1;HPM_P2
2023/04/25 00:00:06;;;;;;;4.50;2.25;;;;;;;5.56;100.00;95199.34;1034112;28;20029;-71
2023/04/25 00:00:37;;;;;;;3.92;2.70;;;;;;;5.53;100.00;95192.00;1030312;28;20027;-71
2023/04/25 00:01:09;;;;;;;3.67;2.20;;;;;;;5.53;100.00;95192.00;1030461;28;20257;-71
2023/04/25 00:01:39;;;;;;;3.15;2.47;;;;;;;5.52;100.00;95190.44;1034997;28;20026;-71
2023/04/25 00:02:10;;;;;;;4.53;2.85;;;;;;;5.49;100.00;95188.31;1038414;28;20267;-73
2023/04/25 00:02:41;;;;;;;3.42;2.33;;;;;;;5.50;100.00;95195.91;1032253;28;20121;-69
2023/04/25 00:03:11;;;;;;;3.33;2.35;;;;;;;5.49;100.00;95191.72;1030149;28;20027;-71
2023/04/25 00:03:42;;;;;;;4.15;2.15;;;;;;;5.46;100.00;95187.00;1030086;28;20026;-72
2023/04/25 00:04:12;;;;;;;3.78;2.75;;;;;;;5.50;100.00;95193.31;1030578;28;20022;-71
2023/04/25 00:04:43;;;;;;;4.00;2.55;;;;;;;5.49;100.00;95190.94;1025955;28;20031;-71
2023/04/25 00:05:14;;;;;;;4.68;2.55;;;;;;;5.44;100.00;95182.03;1030220;28;20425;-72
2023/04/25 00:05:45;;;;;;;4.38;3.08;;;;;;;5.52;100.00;95195.66;1022313;29;20023;-72
2023/04/25 00:06:17;;;;;;;3.30;2.45;;;;;;;5.52;100.00;95195.66;1021367;28;20289;-72
2023/04/25 00:06:48;;;;;;;4.75;2.83;;;;;;;5.50;100.00;95193.31;1022213;29;20031;-72
2023/04/25 00:07:19;;;;;;;2.80;2.58;;;;;;;5.48;100.00;95194.56;1026210;28;20254;-71
2023/04/25 00:07:50;;;;;;;4.43;2.70;;;;;;;5.41;100.00;95190.34;1023763;28;20015;-71
2023/04/25 00:08:20;;;;;;;2.85;2.30;;;;;;;5.41;100.00;95185.13;1026351;28;20258;-72
2023/04/25 00:08:50;;;;;;;4.78;3.00;;;;;;;5.48;100.00;95194.56;1021592;29;20086;-71
2023/04/25 00:09:22;;;;;;;4.38;2.58;;;;;;;5.50;100.00;95192.50;1018432;29;20023;-71
2023/04/25 00:09:52;;;;;;;3.55;2.53;;;;;;;5.47;100.00;95193.78;1018555;29;20088;-71
2023/04/25 00:10:23;;;;;;;3.45;2.50;;;;;;;5.47;100.00;95196.41;1022387;28;20346;-70
2023/04/25 00:10:53;;;;;;;6.00;4.15;;;;;;;5.45;100.00;95198.44;1022355;28;20122;-71
2023/04/25 00:11:24;;;;;;;3.78;2.30;;;;;;;5.36;100.00;95179.84;1027466;28;20030;-71
2023/04/25 00:11:54;;;;;;;3.00;2.63;;;;;;;5.44;100.00;95189.06;1030067;28;20054;-71
2023/04/25 00:12:25;;;;;;;3.70;2.50;;;;;;;5.49;100.00;95198.75;1026174;28;20026;-71
2023/04/25 00:12:55;;;;;;;4.28;2.65;;;;;;;5.42;100.00;95194.50;1024781;28;20539;-71
2023/04/25 00:13:26;;;;;;;3.83;2.58;;;;;;;5.41;100.00;95195.53;1022213;29;20035;-72
2023/04/25 00:13:57;;;;;;;3.70;2.40;;;;;;;5.47;100.00;95204.19;1022191;28;20027;-71
2023/04/25 00:14:28;;;;;;;3.05;2.70;;;;;;;5.48;100.00;95204.97;1026220;28;20026;-71
2023/04/25 00:14:59;;;;;;;4.90;3.08;;;;;;;5.46;100.00;95205.22;1034055;28;20032;-71
2023/04/25 00:15:30;;;;;;;5.93;2.65;;;;;;;5.42;100.00;95199.72;1034730;28;20314;-71
2023/04/25 00:16:02;;;;;;;6.00;2.95;;;;;;;5.47;100.00;95203.41;1030392;28;20276;-71
2023/04/25 00:16:34;;;;;;;4.65;2.97;;;;;;;5.46;100.00;95207.03;1025989;28;20066;-71
2023/04/25 00:17:05;;;;;;;2.95;2.35;;;;;;;5.47;100.00;95203.41;1026158;28;20262;-71
2023/04/25 00:17:38;;;;;;;4.22;2.70;;;;;;;5.44;100.00;95208.06;1027360;28;20348;-71
2023/04/25 00:18:08;;;;;;;4.82;2.42;;;;;;;5.41;100.00;95203.34;1030799;28;20356;-73
2023/04/25 00:18:39;;;;;;;3.78;2.80;;;;;;;5.43;100.00;95203.09;1026089;28;20273;-70
2023/04/25 00:19:10;;;;;;;3.85;2.70;;;;;;;5.41;100.00;95211.16;1029924;28;20030;-71
2023/04/25 00:19:40;;;;;;;4.82;2.85;;;;;;;5.41;100.00;95208.56;1026060;28;20082;-73
2023/04/25 00:20:11;;;;;;;5.43;2.60;;;;;;;5.40;100.00;95204.38;1026242;28;20034;-72
2023/04/25 00:20:46;;;;;;;4.03;2.65;;;;;;;5.41;100.00;95211.16;1034285;28;20029;-71
2023/04/25 00:21:18;;;;;;;3.55;2.70;;;;;;;5.42;100.00;95204.91;1030709;28;20268;-70
2023/04/25 00:21:48;;;;;;;3.47;2.47;;;;;;;5.41;100.00;95205.94;1034876;28;20265;-71
2023/04/25 00:22:20;;;;;;;2.50;2.13;;;;;;;5.37;100.00;95202.25;1037372;28;20720;-71
2023/04/25 00:22:52;;;;;;;3.97;2.55;;;;;;;5.41;100.00;95211.16;1030565;28;20026;-72
2023/04/25 00:23:23;;;;;;;5.38;2.60;;;;;;;5.40;100.00;95201.00;1030572;28;20300;-71
2023/04/25 00:23:54;;;;;;;3.70;3.33;;;;;;;5.42;100.00;95206.72;1034138;28;20276;-71
2023/04/25 00:24:25;;;;;;;4.43;3.00;;;;;;;5.42;100.00;95206.72;1026652;28;21252;-71
2023/04/25 00:24:57;;;;;;;4.68;2.70;;;;;;;5.46;100.00;95207.03;1025953;28;20277;-72
2023/04/25 00:25:27;;;;;;;3.95;2.80;;;;;;;5.43;100.00;95205.69;1026199;28;20420;-71
2023/04/25 00:25:58;;;;;;;4.40;2.85;;;;;;;5.43;100.00;95209.09;1018842;28;20267;-71
2023/04/25 00:26:28;;;;;;;3.78;2.75;;;;;;;5.47;100.00;95206.03;1030222;28;20034;-72
2023/04/25 00:26:58;;;;;;;3.13;2.53;;;;;;;5.48;100.00;95207.59;1034074;28;20034;-72
2023/04/25 00:27:29;;;;;;;4.45;2.83;;;;;;;5.42;100.00;95197.09;1025341;28;20085;-71
2023/04/25 00:28:00;;;;;;;4.35;2.92;;;;;;;5.42;100.00;95198.94;1026063;28;20095;-71
2023/04/25 00:28:30;;;;;;;5.45;2.83;;;;;;;5.48;100.00;95210.19;1022015;28;20031;-71
2023/04/25 00:29:01;;;;;;;4.15;2.75;;;;;;;5.45;100.00;95203.66;1025466;28;20038;-72
2023/04/25 00:29:31;;;;;;;6.60;3.03;;;;;;;5.42;100.00;95197.09;1026033;28;20476;-71
2023/04/25 00:30:02;;;;;;;5.00;2.80;;;;;;;5.48;100.00;95205.75;1025716;28;20060;-72
2023/04/25 00:30:32;;;;;;;5.22;2.90;;;;;;;5.46;100.00;95205.22;1030014;28;20045;-71
2023/04/25 00:31:03;;;;;;;4.13;2.80;;;;;;;5.48;100.00;95205.75;1022166;28;20027;-72
2023/04/25 00:31:34;;;;;;;4.10;2.70;;;;;;;5.49;100.00;95204.72;1025241;28;20034;-71
2023/04/25 00:32:04;;;;;;;2.70;2.47;;;;;;;5.43;100.00;95198.69;1026143;28;20030;-70
2023/04/25 00:32:35;;;;;;;6.22;2.92;;;;;;;5.49;100.00;95202.13;1026084;28;20062;-71
2023/04/25 00:33:05;;;;;;;4.07;2.45;;;;;;;5.51;100.00;95194.09;1022246;28;20042;-71
2023/04/25 00:33:36;;;;;;;6.45;3.50;;;;;;;5.53;100.00;95207.63;1022666;28;20035;-71
2023/04/25 00:34:08;;;;;;;3.88;2.75;;;;;;;5.53;100.00;95202.41;1022273;28;20056;-71
2023/04/25 00:34:38;;;;;;;4.97;2.70;;;;;;;5.51;100.00;95201.91;1022412;28;20617;-71
2023/04/25 00:35:09;;;;;;;3.97;2.50;;;;;;;5.51;100.00;95205.28;1026313;28;20273;-71
2023/04/25 00:35:39;;;;;;;4.20;2.53;;;;;;;5.54;100.00;95201.41;1018190;29;20032;-71
2023/04/25 00:36:10;;;;;;;3.55;2.60;;;;;;;5.52;100.00;95200.84;1018670;29;20127;-72
2023/04/25 00:36:40;;;;;;;3.83;2.88;;;;;;;5.49;100.00;95198.75;1018885;29;20027;-70
2023/04/25 00:37:11;;;;;;;6.30;3.03;;;;;;;5.55;100.00;95202.97;1019185;28;20020;-71
2023/04/25 00:37:42;;;;;;;4.30;2.75;;;;;;;5.50;100.00;95198.50;1026722;28;20592;-70
2023/04/25 00:38:12;;;;;;;4.10;2.70;;;;;;;5.49;100.00;95202.13;1030597;28;20269;-71
2023/04/25 00:38:43;;;;;;;3.08;2.55;;;;;;;5.48;100.00;95197.19;1033336;28;20026;-72
2023/04/25 00:39:13;;;;;;;4.55;3.13;;;;;;;5.47;100.00;95198.22;1034159;28;20471;-72
2023/04/25 00:39:43;;;;;;;4.57;2.80;;;;;;;5.41;100.00;95190.34;1030220;28;20400;-71
2023/04/25 00:40:14;;;;;;;3.95;2.85;;;;;;;5.41;100.00;95194.75;1034200;28;20038;-72
2023/04/25 00:40:44;;;;;;;3.95;2.33;;;;;;;5.39;100.00;95196.81;1026251;28;20022;-71
2023/04/25 00:41:15;;;;;;;4.13;2.70;;;;;;;5.41;100.00;95205.16;1022374;29;20027;-71
2023/04/25 00:41:45;;;;;;;5.22;2.80;;;;;;;5.32;100.00;95191.78;1018649;29;20465;-73
2023/04/25 00:42:16;;;;;;;4.10;2.55;;;;;;;5.34;100.00;95200.16;1022218;28;20031;-71
2023/04/25 00:42:47;;;;;;;4.82;2.90;;;;;;;5.32;100.00;95194.38;1026452;28;20086;-71
2023/04/25 00:43:17;;;;;;;3.83;3.00;;;;;;;5.32;100.00;95197.00;1026650;28;20133;-72
2023/04/25 00:43:48;;;;;;;3.50;2.72;;;;;;;5.31;100.00;95190.22;1025996;28;20027;-72
2023/04/25 00:44:18;;;;;;;5.82;2.67;;;;;;;5.28;100.00;95197.72;1018697;29;20655;-71
2023/04/25 00:44:49;;;;;;;3.10;2.55;;;;;;;5.30;100.00;95193.03;1026185;28;20034;-71
2023/04/25 00:45:20;;;;;;;4.18;2.90;;;;;;;5.26;100.00;95192.75;1025995;28;20031;-72
2023/04/25 00:45:50;;;;;;;3.25;2.60;;;;;;;5.24;100.00;95189.63;1026357;28;20035;-71
2023/04/25 00:46:21;;;;;;;4.38;2.60;;;;;;;5.22;100.00;95188.28;1030392;28;20022;-71
2023/04/25 00:46:51;;;;;;;6.47;3.20;;;;;;;5.23;100.00;95192.44;1033956;28;20030;-72
2023/04/25 00:47:22;;;;;;;4.88;3.08;;;;;;;5.20;100.00;95188.53;1034450;28;20492;-73
2023/04/25 00:47:52;;;;;;;2.45;2.25;;;;;;;5.16;100.00;95190.84;1034291;28;20038;-71
2023/04/25 00:48:23;;;;;;;4.13;3.00;;;;;;;5.17;100.00;95191.63;1030466;28;20116;-71
2023/04/25 00:48:53;;;;;;;3.47;2.38;;;;;;;5.16;100.00;95192.63;1029287;28;20089;-71
2023/04/25 00:49:24;;;;;;;4.32;2.50;;;;;;;5.13;100.00;95193.09;1025934;28;20038;-72
2023/04/25 00:49:54;;;;;;;3.72;3.00;;;;;;;5.13;100.00;95193.09;1026170;28;20067;-71
2023/04/25 00:50:25;;;;;;;5.72;2.80;;;;;;;5.11;100.00;95192.56;1021924;28;20900;-72
2023/04/25 00:50:57;;;;;;;4.40;2.80;;;;;;;5.08;100.00;95183.44;1025965;28;20342;-72
2023/04/25 00:51:28;;;;;;;5.93;2.45;;;;;;;5.08;100.00;95190.47;1022174;28;20853;-71
2023/04/25 00:51:58;;;;;;;5.53;3.13;;;;;;;5.08;100.00;95185.25;1022258;28;20678;-71
2023/04/25 00:52:29;;;;;;;5.03;3.08;;;;;;;4.91;100.00;95170.50;1022554;28;20048;-71
2023/04/25 00:52:59;;;;;;;5.57;3.10;;;;;;;5.03;100.00;95185.19;1026404;28;20022;-71
2023/04/25 00:53:30;;;;;;;4.03;2.83;;;;;;;5.04;100.00;95197.97;1030113;28;20026;-73
2023/04/25 00:54:00;;;;;;;5.53;2.95;;;;;;;5.04;100.00;95190.16;1025809;28;20031;-72
2023/04/25 00:54:31;;;;;;;6.72;3.03;;;;;;;5.03;100.00;95187.78;1029994;28;20034;-71
2023/04/25 00:55:01;;;;;;;4.20;3.10;;;;;;;5.02;100.00;95189.59;1030056;28;20022;-72
2023/04/25 00:55:32;;;;;;;3.80;2.53;;;;;;;5.03;100.00;95193.78;1027813;28;20033;-73
2023/04/25 00:56:02;;;;;;;3.97;3.00;;;;;;;5.03;100.00;95185.19;1020455;29;20023;-71
2023/04/25 00:56:33;;;;;;;6.53;3.15;;;;;;;5.05;100.00;95191.72;1026258;28;20400;-70
2023/04/25 00:57:03;;;;;;;5.65;3.38;;;;;;;5.03;100.00;95180.78;1026224;28;20027;-71
2023/04/25 00:57:34;;;;;;;3.25;2.65;;;;;;;5.02;100.00;95187.00;1025813;28;20037;-72
2023/04/25 00:58:04;;;;;;;4.68;2.83;;;;;;;5.05;100.00;95188.34;1025978;28;20095;-72
2023/04/25 00:58:35;;;;;;;6.28;3.40;;;;;;;5.04;100.00;95189.38;1017734;29;20898;-71
2023/04/25 00:59:05;;;;;;;4.70;3.20;;;;;;;4.95;100.00;95171.56;1025903;28;20022;-71
2023/04/25 00:59:36;;;;;;;5.97;3.00;;;;;;;5.01;100.00;95185.44;1025195;28;20115;-72
2023/04/25 01:00:09;;;;;;;4.35;2.92;;;;;;;5.05;100.00;95185.75;1033999;28;20037;-72
2023/04/25 01:00:40;;;;;;;3.92;3.30;;;;;;;5.07;100.00;95189.69;1025968;28;20788;-73
2023/04/25 01:01:11;;;;;;;4.03;2.75;;;;;;;5.11;100.00;95192.56;1029896;28;20269;-70
2023/04/25 01:01:41;;;;;;;3.25;2.80;;;;;;;4.96;100.00;95167.97;1025914;28;20281;-72
2023/04/25 01:02:12;;;;;;;7.35;2.70;;;;;;;5.03;100.00;95174.78;1021244;29;20031;-70
2023/04/25 01:02:43;;;;;;;3.90;2.75;;;;;;;5.05;100.00;95172.75;1025226;28;20636;-72
2023/04/25 01:03:15;;;;;;;3.97;2.90;;;;;;;5.06;100.00;95169.88;1026015;28;20503;-71
2023/04/25 01:03:46;;;;;;;4.13;2.75;;;;;;;5.06;100.00;95164.69;1026882;28;20026;-71
2023/04/25 01:04:16;;;;;;;4.63;2.63;;;;;;;5.13;100.00;95178.31;1029900;28;20634;-71
2023/04/25 01:04:47;;;;;;;4.10;2.55;;;;;;;5.14;100.00;95184.28;1030186;28;20120;-71
2023/04/25 01:05:18;;;;;;;3.83;2.90;;;;;;;5.11;100.00;95169.19;1026545;28;20042;-71
2023/04/25 01:05:49;;;;;;;4.85;3.67;;;;;;;5.16;100.00;95177.84;1022107;28;20035;-71
2023/04/25 01:06:19;;;;;;;4.10;2.72;;;;;;;5.18;100.00;95174.97;1029914;28;20343;-71
2023/04/25 01:06:50;;;;;;;4.68;3.30;;;;;;;5.17;100.00;95178.63;1026005;28;20074;-70
2023/04/25 01:07:20;;;;;;;5.32;3.10;;;;;;;5.19;100.00;95181.75;1021845;28;20027;-70
2023/04/25 01:07:51;;;;;;;6.68;3.13;;;;;;;5.12;100.00;95162.94;1029840;28;20030;-72
2023/04/25 01:08:23;;;;;;;6.10;2.90;;;;;;;5.19;100.00;95177.31;1030041;28;20058;-70
2023/04/25 01:08:53;;;;;;;4.78;3.05;;;;;;;5.23;100.00;95177.66;1025275;28;20027;-71
2023/04/25 01:09:24;;;;;;;5.18;3.30;;;;;;;5.20;100.00;95170.34;1025757;28;20265;-72
2023/04/25 01:09:54;;;;;;;4.60;2.70;;;;;;;5.24;100.00;95171.41;1025913;28;20621;-72
2023/04/25 01:10:25;;;;;;;5.40;3.20;;;;;;;5.25;100.00;95172.97;1030078;28;20018;-72
2023/04/25 01:10:55;;;;;;;4.88;3.17;;;;;;;5.24;100.00;95174.00;1025966;28;20027;-71
2023/04/25 01:11:26;;;;;;;8.00;3.58;;;;;;;5.27;100.00;95177.97;1026041;28;20037;-70
2023/04/25 01:11:57;;;;;;;7.03;2.70;;;;;;;5.26;100.00;95179.75;1029783;28;20069;-71
2023/04/25 01:12:28;;;;;;;3.95;3.05;;;;;;;5.26;100.00;95177.13;1026200;28;20037;-72
2023/04/25 01:12:58;;;;;;;3.25;2.50;;;;;;;5.27;100.00;95173.53;1029946;28;20292;-72
2023/04/25 01:13:29;;;;;;;5.93;3.00;;;;;;;5.27;100.00;95173.53;1022010;29;20074;-71
2023/04/25 01:14:00;;;;;;;4.57;2.75;;;;;;;5.23;100.00;95167.25;1021981;28;20122;-71
2023/04/25 01:14:31;;;;;;;4.80;3.10;;;;;;;5.27;100.00;95172.75;1021446;29;20498;-71
2023/04/25 01:15:01;;;;;;;4.32;2.97;;;;;;;5.27;100.00;95178.72;1022413;28;20302;-71
2023/04/25 01:15:31;;;;;;;2.80;2.50;;;;;;;5.27;100.00;95173.53;1025889;28;20035;-72
2023/04/25 01:16:02;;;;;;;5.57;3.00;;;;;;;5.26;100.00;95174.53;1022115;28;20038;-71
2023/04/25 01:16:33;;;;;;;3.50;2.70;;;;;;;5.28;100.00;95171.72;1021908;29;20027;-71
2023/04/25 01:17:03;;;;;;;4.32;2.53;;;;;;;5.28;100.00;95174.31;1017861;29;20039;-71
2023/04/25 01:17:34;;;;;;;3.85;2.85;;;;;;;5.28;100.00;95175.09;1018405;28;20027;-71
2023/04/25 01:18:05;;;;;;;4.38;2.80;;;;;;;5.29;100.00;95171.47;1022014;28;20031;-71
2023/04/25 01:18:37;;;;;;;4.85;2.95;;;;;;;5.29;100.00;95171.47;1021774;28;20271;-71
2023/04/25 01:19:10;;;;;;;5.63;2.83;;;;;;;5.27;100.00;95163.13;1021506;29;20275;-71
2023/04/25 01:19:41;;;;;;;4.50;2.70;;;;;;;5.27;100.00;95162.34;1029844;28;21056;-71
2023/04/25 01:20:12;;;;;;;3.42;2.72;;;;;;;5.31;100.00;95166.81;1021814;29;20317;-71
2023/04/25 01:20:42;;;;;;;4.07;2.72;;;;;;;5.32;100.00;95167.59;1022025;29;20030;-72
2023/04/25 01:21:13;;;;;;;4.95;2.90;;;;;;;5.32;100.00;95168.38;1022005;29;20019;-72
2023/04/25 01:21:43;;;;;;;3.65;2.53;;;;;;;5.32;100.00;95165.78;1025418;28;20397;-72
2023/04/25 01:22:14;;;;;;;3.92;3.05;;;;;;;5.33;100.00;95164.75;1018164;29;20019;-71
2023/04/25 01:22:44;;;;;;;3.15;2.83;;;;;;;5.30;100.00;95154.84;1018131;29;20039;-72
2023/04/25 01:23:15;;;;;;;5.53;3.25;;;;;;;5.31;100.00;95159.00;1020148;29;20015;-72
2023/04/25 01:23:45;;;;;;;3.42;2.85;;;;;;;5.36;100.00;95163.47;1022163;28;20107;-71
2023/04/25 01:24:16;;;;;;;6.78;3.05;;;;;;;5.31;100.00;95158.22;1022079;29;20019;-72
2023/04/25 01:24:46;;;;;;;3.47;2.53;;;;;;;5.30;100.00;95154.84;1021725;28;20457;-71
2023/04/25 01:25:18;;;;;;;5.30;2.78;;;;;;;5.35;100.00;95161.91;1021950;29;20031;-71
2023/04/25 01:25:49;;;;;;;3.92;2.78;;;;;;;5.35;100.00;95167.09;1022069;29;20030;-71
2023/04/25 01:26:21;;;;;;;3.22;2.58;;;;;;;5.34;100.00;95163.72;1025940;28;20269;-71
2023/04/25 01:26:51;;;;;;;5.13;2.80;;;;;;;5.37;100.00;95162.47;1021829;29;20021;-72
2023/04/25 01:27:22;;;;;;;5.90;3.03;;;;;;;5.37;100.00;95154.66;1025958;28;20704;-72
2023/04/25 01:27:53;;;;;;;3.25;2.60;;;;;;;5.36;100.00;95159.03;1022108;29;20042;-71
2023/04/25 01:28:23;;;;;;;4.78;3.17;;;;;;;5.36;100.00;95159.03;1016639;29;20024;-71
2023/04/25 01:28:53;;;;;;;4.60;2.88;;;;;;;5.33;100.00;95151.75;1021389;29;20473;-72
2023/04/25 01:29:24;;;;;;;8.15;3.03;;;;;;;5.36;100.00;95151.25;1025996;28;20019;-71
2023/04/25 01:29:55;;;;;;;4.40;2.85;;;;;;;5.36;100.00;95153.06;1033871;28;20025;-72
2023/04/25 01:30:26;;;;;;;5.13;3.08;;;;;;;5.30;100.00;95146.22;1025800;28;20054;-74
2023/04/25 01:30:57;;;;;;;5.05;2.65;;;;;;;5.34;100.00;95152.53;1025861;28;20265;-72
2023/04/25 01:31:27;;;;;;;3.78;2.75;;;;;;;5.28;100.00;95143.88;1025916;28;20269;-71
2023/04/25 01:31:58;;;;;;;4.90;2.65;;;;;;;5.27;100.00;95144.94;1025960;28;20101;-71
2023/04/25 01:32:29;;;;;;;6.85;2.78;;;;;;;5.31;100.00;95151.19;1025967;28;20015;-71
2023/04/25 01:32:59;;;;;;;4.28;2.70;;;;;;;5.29;100.00;95145.44;1033985;28;20033;-71
2023/04/25 01:33:29;;;;;;;4.32;3.10;;;;;;;5.31;100.00;95153.81;1029848;28;20050;-70
2023/04/25 01:34:00;;;;;;;4.47;2.92;;;;;;;5.33;100.00;95161.34;1029946;28;20077;-71
2023/04/25 01:34:31;;;;;;;3.13;2.60;;;;;;;5.31;100.00;95158.22;1025963;28;20011;-71
2023/04/25 01:35:02;;;;;;;5.15;2.90;;;;;;;5.28;100.00;95158.72;1029622;28;20564;-72
2023/04/25 01:35:32;;;;;;;4.22;2.85;;;;;;;5.32;100.00;95167.59;1034371;28;20538;-71
2023/04/25 01:36:03;;;;;;;4.47;2.83;;;;;;;5.27;100.00;95157.94;1030222;28;20308;-71
2023/04/25 01:36:34;;;;;;;4.28;2.70;;;;;;;5.31;100.00;95163.44;1030120;28;20019;-70
2023/04/25 01:37:05;;;;;;;3.92;2.75;;;;;;;5.25;100.00;95156.59;1025909;28;20098;-72
2023/04/25 01:37:37;;;;;;;4.47;2.88;;;;;;;5.27;100.00;95157.94;1026103;28;20266;-71
2023/04/25 01:38:07;;;;;;;3.17;2.78;;;;;;;5.28;100.00;95162.09;1021793;29;20900;-71
2023/04/25 01:38:38;;;;;;;3.72;2.78;;;;;;;5.27;100.00;95157.94;1025243;28;20258;-71
2023/04/25 01:39:09;;;;;;;3.90;2.75;;;;;;;5.32;100.00;95165.78;1025648;28;20018;-71
2023/04/25 01:39:39;;;;;;;3.88;2.65;;;;;;;5.33;100.00;95171.75;1025902;28;20054;-71
2023/04/25 01:40:10;;;;;;;4.95;2.80;;;;;;;5.34;100.00;95168.94;1026114;28;20015;-72
2023/04/25 01:40:41;;;;;;;5.95;3.00;;;;;;;5.31;100.00;95163.44;1030419;28;20028;-71
2023/04/25 01:41:11;;;;;;;3.40;2.80;;;;;;;5.32;100.00;95165.78;1025848;28;20030;-72
2023/04/25 01:41:42;;;;;;;3.88;2.40;;;;;;;5.36;100.00;95169.44;1021890;29;20023;-71
2023/04/25 01:42:12;;;;;;;4.95;2.80;;;;;;;5.32;100.00;95160.56;1021970;29;20015;-72
2023/04/25 01:42:43;;;;;;;5.60;2.83;;;;;;;5.38;100.00;95164.81;1025967;28;20030;-72
2023/04/25 01:43:14;;;;;;;3.58;2.80;;;;;;;5.39;100.00;95171.56;1022010;28;20386;-72
2023/04/25 01:43:44;;;;;;;4.65;2.83;;;;;;;5.39;100.00;95174.16;1023016;28;20015;-71
2023/04/25 01:44:15;;;;;;;4.45;3.00;;;;;;;5.36;100.00;95172.06;1029874;28;20030;-71
2023/04/25 01:44:45;;;;;;;6.28;2.78;;;;;;;5.29;100.00;95161.06;1026240;28;20476;-71
2023/04/25 01:45:16;;;;;;;9.90;3.72;;;;;;;5.33;100.00;95164.75;1029812;28;20939;-71
2023/04/25 01:45:46;;;;;;;3.88;3.13;;;;;;;5.30;100.00;95159.22;1025915;28;20042;-71
2023/04/25 01:46:17;;;;;;;4.65;2.85;;;;;;;5.27;100.00;95167.56;1013975;29;20593;-71
2023/04/25 01:46:47;;;;;;;6.10;3.13;;;;;;;5.25;100.00;95177.41;1021900;28;20023;-72
2023/04/25 01:47:18;;;;;;;6.20;2.67;;;;;;;5.21;100.00;95166.69;1029688;28;20022;-71
2023/04/25 01:47:49;;;;;;;5.22;2.83;;;;;;;5.15;100.00;95163.25;1025936;28;20556;-71
2023/04/25 01:48:20;;;;;;;4.22;2.70;;;;;;;5.18;100.00;95170.56;1014008;29;20826;-71
2023/04/25 01:48:50;;;;;;;4.82;2.95;;;;;;;5.15;100.00;95165.84;1016146;29;20311;-72
2023/04/25 01:49:21;;;;;;;3.42;2.90;;;;;;;5.10;100.00;95172.81;1017724;29;20490;-71
2023/04/25 01:49:51;;;;;;;4.38;3.22;;;;;;;5.08;100.00;95164.47;1014440;28;20410;-71
2023/04/25 01:50:22;;;;;;;5.28;2.90;;;;;;;5.06;100.00;95169.09;1023349;28;20027;-71
2023/04/25 01:50:52;;;;;;;2.70;2.40;;;;;;;5.05;100.00;95170.13;1017944;29;20023;-71
2023/04/25 01:51:22;;;;;;;5.35;3.10;;;;;;;5.02;100.00;95166.19;1014251;29;20032;-72
2023/04/25 01:51:53;;;;;;;6.78;4.30;;;;;;;5.00;100.00;95173.47;1021877;28;20450;-70
2023/04/25 01:52:23;;;;;;;4.28;3.20;;;;;;;4.98;100.00;95170.31;1025869;28;20025;-71
2023/04/25 01:52:54;;;;;;;4.00;3.05;;;;;;;4.91;100.00;95165.28;1030010;28;20750;-72
2023/04/25 01:53:24;;;;;;;4.55;3.05;;;;;;;4.95;100.00;95176.78;1025993;28;20368;-72
2023/04/25 01:53:55;;;;;;;3.95;2.90;;;;;;;4.92;100.00;95166.84;1011263;29;20028;-71
2023/04/25 01:54:25;;;;;;;4.50;2.90;;;;;;;4.84;100.00;95156.88;1017988;29;20032;-71
2023/04/25 01:54:57;;;;;;;3.22;2.58;;;;;;;4.88;100.00;95162.38;1014128;29;20032;-71
2023/04/25 01:55:28;;;;;;;3.10;2.60;;;;;;;4.90;100.00;95173.34;1015496;29;20056;-71
2023/04/25 01:55:58;;;;;;;3.80;2.95;;;;;;;4.84;100.00;95164.69;1018086;29;20702;-71
2023/04/25 01:56:32;;;;;;;5.63;2.85;;;;;;;4.83;100.00;95163.13;1018345;29;20092;-71
2023/04/25 01:57:03;;;;;;;7.15;3.22;;;;;;;4.85;100.00;95179.25;1018038;29;20067;-70
2023/04/25 01:57:33;;;;;;;5.55;2.90;;;;;;;4.85;100.00;95176.63;1022697;28;20784;-71
2023/04/25 01:58:08;;;;;;;5.95;3.10;;;;;;;4.81;100.00;95170.34;1025369;28;20029;-72
2023/04/25 01:58:39;;;;;;;5.95;3.38;;;;;;;4.80;100.00;95170.59;1018420;29;20581;-70
2023/04/25 01:59:10;;;;;;;4.75;2.92;;;;;;;4.85;100.00;95181.84;1021651;29;20294;-71
2023/04/25 01:59:42;;;;;;;5.07;2.83;;;;;;;4.84;100.00;95179.50;1022081;29;20508;-71
2023/04/25 02:00:13;;;;;;;4.50;2.92;;;;;;;4.84;100.00;95185.47;1014000;29;20020;-72
2023/04/25 02:00:44;;;;;;;5.78;3.58;;;;;;;4.81;100.00;95180.75;1010001;29;20798;-71
2023/04/25 02:01:14;;;;;;;5.10;3.15;;;;;;;4.83;100.00;95183.91;1017062;29;20114;-71
2023/04/25 02:01:45;;;;;;;4.05;2.97;;;;;;;4.84;100.00;95182.88;1018442;28;20252;-70
2023/04/25 02:02:15;;;;;;;3.60;2.72;;;;;;;4.83;100.00;95183.91;1026147;28;20022;-71
2023/04/25 02:02:46;;;;;;;5.95;3.88;;;;;;;4.82;100.00;95177.13;1024243;28;20018;-72
2023/04/25 02:03:16;;;;;;;5.70;4.25;;;;;;;4.82;100.00;95178.94;1025948;28;20025;-70
2023/04/25 02:03:47;;;;;;;4.28;3.08;;;;;;;4.83;100.00;95177.91;1022682;29;20883;-70
2023/04/25 02:04:17;;;;;;;4.80;2.70;;;;;;;4.82;100.00;95186.72;1022651;28;20031;-71
2023/04/25 02:04:47;;;;;;;3.58;3.20;;;;;;;4.79;100.00;95172.41;1026739;28;20027;-71
2023/04/25 02:05:18;;;;;;;4.30;3.20;;;;;;;4.86;100.00;95183.44;1026737;28;20026;-71
2023/04/25 02:05:49;;;;;;;5.22;3.30;;;;;;;4.86;100.00;95174.81;1034861;28;20093;-71
2023/04/25 02:06:19;;;;;;;4.25;3.08;;;;;;;4.88;100.00;95183.19;1034309;28;20061;-71
2023/04/25 02:06:50;;;;;;;4.78;3.30;;;;;;;4.89;100.00;95182.16;1030753;28;20057;-71
2023/04/25 02:07:20;;;;;;;4.68;3.00;;;;;;;4.88;100.00;95175.38;1034650;28;20027;-72
2023/04/25 02:07:51;;;;;;;7.75;3.13;;;;;;;4.91;100.00;95180.09;1030515;28;20051;-71
2023/04/25 02:08:21;;;;;;;3.78;2.65;;;;;;;4.94;100.00;95179.63;1034577;28;20831;-70
2023/04/25 02:08:51;;;;;;;4.82;3.00;;;;;;;4.92;100.00;95177.25;1034061;28;20030;-72
2023/04/25 02:09:22;;;;;;;6.18;3.15;;;;;;;4.93;100.00;95175.47;1034633;28;20033;-71
2023/04/25 02:09:53;;;;;;;3.78;3.03;;;;;;;4.95;100.00;95178.59;1038844;28;20021;-71
2023/04/25 02:10:23;;;;;;;5.70;3.47;;;;;;;4.94;100.00;95169.22;1038699;28;20022;-71
2023/04/25 02:10:54;;;;;;;3.30;2.40;;;;;;;4.90;100.00;95166.31;1030670;28;20018;-71
2023/04/25 02:11:24;;;;;;;4.32;3.05;;;;;;;4.95;100.00;95171.56;1026594;28;20030;-71
2023/04/25 02:11:55;;;;;;;5.60;2.65;;;;;;;4.94;100.00;95175.22;1026813;28;20753;-71
2023/04/25 02:12:27;;;;;;;6.00;3.50;;;;;;;4.93;100.00;95155.44;1030602;28;20062;-71
2023/04/25 02:12:57;;;;;;;7.80;3.08;;;;;;;5.00;100.00;95173.47;1030579;28;20015;-71
2023/04/25 02:13:28;;;;;;;5.82;3.60;;;;;;;5.01;100.00;95171.66;1026655;28;20322;-72
2023/04/25 02:13:58;;;;;;;7.30;3.47;;;;;;;5.03;100.00;95169.56;1022697;29;20020;-71
2023/04/25 02:14:29;;;;;;;4.63;3.20;;;;;;;5.05;100.00;95172.75;1018674;29;20039;-69
2023/04/25 02:14:59;;;;;;;3.78;3.25;;;;;;;5.04;100.00;95174.56;1022860;28;20807;-71
2023/04/25 02:15:30;;;;;;;3.33;2.90;;;;;;;4.99;100.00;95163.28;1030540;28;20089;-71
2023/04/25 02:16:00;;;;;;;4.43;2.83;;;;;;;5.06;100.00;95177.69;1030716;28;20062;-72
2023/04/25 02:16:31;;;;;;;5.63;2.78;;;;;;;5.08;100.00;95174.84;1022347;28;20031;-70
2023/04/25 02:17:01;;;;;;;6.22;3.58;;;;;;;5.08;100.00;95173.03;1018887;29;20028;-70
2023/04/25 02:17:32;;;;;;;6.57;3.53;;;;;;;5.09;100.00;95173.81;1026607;28;20057;-71
2023/04/25 02:18:02;;;;;;;4.22;2.67;;;;;;;5.12;100.00;95170.75;1025168;28;20058;-72
2023/04/25 02:18:33;;;;;;;3.92;3.40;;;;;;;5.12;100.00;95171.53;1030273;28;20030;-69
2023/04/25 02:19:03;;;;;;;6.25;2.85;;;;;;;5.14;100.00;95176.50;1030278;28;20062;-72
2023/04/25 02:19:34;;;;;;;5.88;2.90;;;;;;;5.12;100.00;95173.34;1026549;28;20078;-71
2023/04/25 02:20:05;;;;;;;5.00;3.20;;;;;;;5.14;100.00;95173.91;1030885;28;20025;-70
2023/04/25 02:20:36;;;;;;;3.35;2.78;;;;;;;5.12;100.00;95168.13;1030915;28;20053;-73
2023/04/25 02:21:06;;;;;;;4.85;3.00;;;;;;;5.12;100.00;95173.34;1027082;28;20270;-71
2023/04/25 02:21:37;;;;;;;3.55;2.58;;;;;;;5.11;100.00;95169.19;1031518;28;20026;-70
2023/04/25 02:22:07;;;;;;;3.67;3.00;;;;;;;5.11;100.00;95174.38;1026695;28;20026;-70
2023/04/25 02:22:37;;;;;;;4.70;3.17;;;;;;;5.05;100.00;95165.72;1030165;28;20038;-70
2023/04/25 02:23:08;;;;;;;4.40;2.60;;;;;;;5.04;100.00;95163.38;1030818;28;20018;-70
2023/04/25 02:23:38;;;;;;;5.95;3.00;;;;;;;5.10;100.00;95173.59;1023638;28;20069;-72
2023/04/25 02:24:09;;;;;;;3.03;2.72;;;;;;;5.12;100.00;95168.13;1031350;28;20023;-71
2023/04/25 02:24:39;;;;;;;4.68;2.83;;;;;;;5.10;100.00;95172.81;1027118;28;20642;-72